Time;durP1;ratioP1;P1;durP2;ratioP2;P2;SDS_P1;SDS_P2;PMS_P1;PMS_P2;Temp;Humidity;BMP_temperature;BMP_pressure;BME280_temperature;BME280_humidity;BME280_pressure;Samples;Min_cycle;Max_cycle;Signal;HPM_P1;HPM_P2
2023/01/14 00:01:04;;;;;;;4.53;2.13;;;;;;;8.61;nan;100792.09;6212683;28;20244;-77
2023/01/14 00:04:25;;;;;;;2.80;2.23;;;;;;;8.85;nan;100800.81;6186162;28;20621;-75
2023/01/14 00:07:46;;;;;;;3.33;1.77;;;;;;;8.49;nan;100801.16;6203123;28;20613;-77
2023/01/14 00:11:10;;;;;;;1.77;1.67;;;;;;;8.51;nan;100810.78;6211457;28;20232;-80
2023/01/14 00:14:32;;;;;;;5.47;2.20;;;;;;;8.60;nan;100815.41;6202198;28;20260;-76
2023/01/14 00:17:53;;;;;;;4.13;1.43;;;;;;;8.64;nan;100814.19;6207222;28;20330;-76
2023/01/14 00:21:15;;;;;;;1.37;1.20;;;;;;;8.80;nan;100824.56;6216704;28;20547;-76
2023/01/14 00:24:36;;;;;;;4.50;1.37;;;;;;;8.70;nan;100820.88;6209426;28;20509;-76
2023/01/14 00:27:58;;;;;;;3.47;1.30;;;;;;;8.67;nan;100831.91;6200372;28;20249;-76
2023/01/14 00:31:21;;;;;;;2.30;1.80;;;;;;;8.58;nan;100825.44;6184579;28;20232;-77
2023/01/14 00:34:42;;;;;;;3.80;1.57;;;;;;;8.80;nan;100821.84;6188510;28;20236;-75
2023/01/14 00:38:04;;;;;;;2.33;1.00;;;;;;;8.59;nan;100831.69;6199880;28;20703;-74
2023/01/14 00:41:27;;;;;;;4.77;1.37;;;;;;;8.64;nan;100845.56;6208051;28;20236;-75
2023/01/14 00:44:49;;;;;;;1.20;1.20;;;;;;;8.41;nan;100849.25;6181176;28;20233;-77
2023/01/14 00:48:10;;;;;;;1.47;1.17;;;;;;;8.42;nan;100840.25;6187309;28;20242;-77
2023/01/14 00:51:32;;;;;;;3.30;2.50;;;;;;;8.51;nan;100845.72;6209632;28;20232;-79
2023/01/14 00:54:53;;;;;;;1.40;0.80;;;;;;;8.64;nan;100849.13;6173898;28;20229;-76
2023/01/14 00:58:14;;;;;;;8.33;2.17;;;;;;;8.41;nan;100855.50;6197358;28;20323;-77
2023/01/14 01:01:36;;;;;;;4.27;2.13;;;;;;;8.46;nan;100863.19;6207093;28;21686;-75
2023/01/14 01:04:58;;;;;;;1.73;1.00;;;;;;;8.36;nan;100851.47;6196667;28;20232;-77
2023/01/14 01:08:21;;;;;;;1.67;1.10;;;;;;;8.28;nan;100861.97;6204498;28;20243;-76
2023/01/14 01:11:42;;;;;;;2.07;1.63;;;;;;;8.40;nan;100879.78;6205356;28;20233;-76
2023/01/14 01:15:04;;;;;;;2.17;1.23;;;;;;;8.45;nan;100875.75;6199674;28;20236;-75
2023/01/14 01:18:26;;;;;;;2.67;2.33;;;;;;;8.38;nan;100877.25;6206238;28;20236;-76
2023/01/14 01:21:48;;;;;;;1.63;1.10;;;;;;;8.43;nan;100880.41;6198408;28;20232;-75
2023/01/14 01:25:09;;;;;;;1.37;1.27;;;;;;;8.36;nan;100889.94;6214527;28;20228;-77
2023/01/14 01:28:31;;;;;;;10.33;1.97;;;;;;;8.35;nan;100900.78;6192899;28;20263;-77
2023/01/14 01:31:52;;;;;;;4.13;1.23;;;;;;;8.23;nan;100907.97;6208971;28;20232;-77
2023/01/14 01:35:14;;;;;;;1.17;0.97;;;;;;;8.26;nan;100913.09;6198280;28;20277;-76
2023/01/14 01:38:35;;;;;;;3.83;1.30;;;;;;;8.28;nan;100907.63;6206000;28;20542;-76
2023/01/14 01:41:56;;;;;;;2.57;1.27;;;;;;;8.33;nan;100911.66;6221368;28;20244;-76
2023/01/14 01:45:29;;;;;;;1.30;1.20;;;;;;;8.42;nan;100927.06;6190028;28;20228;-77
2023/01/14 01:48:50;;;;;;;1.60;1.10;;;;;;;8.39;nan;100916.53;6190030;28;20236;-77
2023/01/14 01:52:16;;;;;;;3.40;2.33;;;;;;;8.44;nan;100943.91;6210784;28;20315;-76
2023/01/14 01:55:41;;;;;;;2.73;2.53;;;;;;;8.40;nan;100937.06;6217519;28;20641;-76
2023/01/14 01:59:04;;;;;;;1.77;1.40;;;;;;;8.34;nan;100959.03;6206042;28;20243;-78
2023/01/14 02:02:28;;;;;;;1.20;1.00;;;;;;;8.65;nan;100952.97;6203100;28;20234;-77
2023/01/14 02:05:51;;;;;;;4.07;1.10;;;;;;;8.54;nan;100950.25;6207452;28;20452;-77
2023/01/14 02:09:14;;;;;;;0.87;0.87;;;;;;;8.45;nan;100961.72;6192615;28;20690;-76
2023/01/14 02:12:50;;;;;;;3.17;1.47;;;;;;;8.69;nan;100953.56;6200499;28;20232;-76
2023/01/14 02:16:20;;;;;;;1.40;0.83;;;;;;;8.52;nan;100959.41;6215604;28;20228;-75
2023/01/14 02:20:09;;;;;;;6.20;0.97;;;;;;;8.41;nan;100957.56;6193832;28;20232;-76
2023/01/14 02:24:03;;;;;;;3.20;1.17;;;;;;;8.35;nan;100951.81;6208206;28;20500;-77
2023/01/14 02:27:47;;;;;;;5.07;2.50;;;;;;;8.41;nan;100970.13;6196758;28;20244;-75
2023/01/14 02:31:13;;;;;;;2.67;1.10;;;;;;;8.43;nan;100971.72;6205213;28;20236;-75
2023/01/14 02:34:43;;;;;;;2.50;1.47;;;;;;;8.50;nan;100975.66;6196057;28;20598;-75
2023/01/14 02:38:14;;;;;;;9.30;2.87;;;;;;;8.60;nan;100970.41;6205388;28;20315;-75
2023/01/14 02:45:25;;;;;;;4.00;1.00;;;;;;;8.41;nan;100984.44;6200024;28;20609;-78
2023/01/14 02:48:51;;;;;;;2.47;1.17;;;;;;;8.65;nan;100966.38;6202309;28;20229;-77
2023/01/14 02:52:13;;;;;;;3.10;1.03;;;;;;;8.57;nan;100979.56;6185515;28;20327;-76
2023/01/14 02:55:35;;;;;;;2.27;1.43;;;;;;;8.37;nan;100977.59;6212532;28;20236;-75
2023/01/14 02:59:18;;;;;;;1.20;0.90;;;;;;;8.46;nan;100970.63;6177721;28;20237;-76
2023/01/14 03:02:59;;;;;;;1.87;1.70;;;;;;;8.34;nan;100985.03;6188992;28;20244;-76
2023/01/14 03:06:30;;;;;;;1.87;1.00;;;;;;;8.34;nan;100976.97;6220315;28;20229;-74
2023/01/14 03:10:01;;;;;;;0.73;0.73;;;;;;;8.32;nan;100978.94;6178384;28;20557;-76
2023/01/14 03:13:31;;;;;;;1.73;1.00;;;;;;;8.35;nan;100987.59;6193942;28;20235;-76
2023/01/14 03:16:57;;;;;;;3.27;1.27;;;;;;;8.66;nan;100986.03;6195610;28;20228;-76
2023/01/14 03:20:22;;;;;;;0.80;0.80;;;;;;;8.63;nan;100986.28;6205474;28;20236;-75
2023/01/14 03:23:50;;;;;;;0.80;0.80;;;;;;;8.51;nan;100998.00;6193577;28;21374;-76
2023/01/14 03:27:18;;;;;;;1.23;0.93;;;;;;;8.51;nan;100992.63;6199112;28;21606;-77
2023/01/14 03:30:46;;;;;;;0.93;0.90;;;;;;;8.34;nan;101017.25;6199077;28;20240;-77
2023/01/14 03:34:09;;;;;;;1.33;1.17;;;;;;;8.37;nan;100995.53;6187279;28;20233;-77
2023/01/14 03:37:31;;;;;;;0.87;0.57;;;;;;;8.60;nan;100998.13;6201640;28;20618;-77
2023/01/14 03:40:55;;;;;;;1.60;1.00;;;;;;;8.45;nan;100998.50;6204865;28;20559;-76
2023/01/14 03:44:22;;;;;;;7.40;1.53;;;;;;;8.68;nan;100993.00;6209179;28;20380;-76
2023/01/14 03:47:45;;;;;;;1.00;1.00;;;;;;;8.78;nan;100993.16;6187853;28;20241;-76
2023/01/14 03:51:13;;;;;;;4.77;1.80;;;;;;;8.43;nan;101006.66;6213109;28;20784;-76
2023/01/14 03:54:43;;;;;;;2.50;1.07;;;;;;;8.75;nan;101014.88;6187316;28;20235;-76
2023/01/14 03:58:13;;;;;;;1.13;1.03;;;;;;;8.65;nan;101005.84;6200472;28;20510;-77
2023/01/14 04:01:44;;;;;;;5.77;2.20;;;;;;;8.52;nan;101013.13;6212419;28;20239;-77
2023/01/14 04:05:06;;;;;;;1.33;1.00;;;;;;;8.71;nan;101008.91;6191161;28;20803;-77
2023/01/14 04:08:27;;;;;;;1.03;0.80;;;;;;;8.82;nan;101008.06;6207465;28;20241;-76
2023/01/14 04:11:48;;;;;;;1.23;1.13;;;;;;;8.56;nan;101009.22;6215955;28;20237;-76
2023/01/14 04:15:21;;;;;;;0.87;0.70;;;;;;;8.64;nan;101007.66;6191204;28;20244;-75
2023/01/14 04:18:41;;;;;;;0.80;0.70;;;;;;;8.66;nan;101020.97;6209383;28;20629;-77
2023/01/14 04:22:02;;;;;;;0.70;0.70;;;;;;;8.56;nan;101017.28;6217478;28;20237;-77
2023/01/14 04:25:23;;;;;;;4.80;1.00;;;;;;;8.56;nan;101020.84;6186738;28;20255;-76
2023/01/14 04:28:43;;;;;;;1.87;0.90;;;;;;;8.34;nan;101025.31;6202555;28;20237;-76
2023/01/14 04:32:06;;;;;;;1.27;1.20;;;;;;;8.43;nan;101027.28;6208609;28;21071;-77
2023/01/14 04:35:26;;;;;;;1.00;0.90;;;;;;;8.37;nan;101031.31;6218222;28;20232;-76
2023/01/14 04:38:47;;;;;;;3.93;2.27;;;;;;;8.27;nan;101038.38;6204202;28;20229;-76
2023/01/14 04:45:49;;;;;;;1.10;0.80;;;;;;;8.22;nan;101042.34;6214788;28;20243;-76
2023/01/14 04:49:11;;;;;;;1.30;1.10;;;;;;;8.20;nan;101037.06;6196280;28;20233;-75
2023/01/14 04:52:33;;;;;;;4.03;1.03;;;;;;;8.25;nan;101050.16;6204989;28;20784;-76
2023/01/14 04:55:56;;;;;;;1.00;0.90;;;;;;;8.23;nan;101044.91;6211473;28;20229;-77
2023/01/14 04:59:17;;;;;;;2.77;0.90;;;;;;;8.18;nan;101048.94;6202731;28;20238;-77
2023/01/14 05:02:37;;;;;;;7.60;1.77;;;;;;;8.08;nan;101046.06;6205190;28;21148;-76
2023/01/14 05:06:00;;;;;;;1.63;1.43;;;;;;;8.20;nan;101042.44;6213194;28;20228;-77
2023/01/14 05:09:20;;;;;;;4.03;1.40;;;;;;;8.26;nan;101044.69;6207204;28;21341;-76
2023/01/14 05:12:55;;;;;;;1.77;1.57;;;;;;;8.41;nan;101035.47;6208459;28;20256;-77
2023/01/14 05:16:18;;;;;;;3.30;3.00;;;;;;;8.51;nan;101030.25;6213728;28;20233;-77
2023/01/14 05:19:39;;;;;;;7.50;1.83;;;;;;;8.41;nan;101026.53;6204108;28;20637;-76
2023/01/14 05:23:03;;;;;;;2.30;1.80;;;;;;;8.21;nan;101024.50;6209157;28;20529;-77
2023/01/14 05:26:24;;;;;;;7.00;2.70;;;;;;;8.27;nan;101022.25;6217397;28;20252;-76
2023/01/14 05:29:44;;;;;;;9.60;3.93;;;;;;;8.21;nan;101033.44;6184423;28;20228;-77
2023/01/14 05:33:06;;;;;;;6.17;2.17;;;;;;;8.34;nan;101028.00;6199072;28;20499;-78
2023/01/14 05:36:27;;;;;;;4.07;2.47;;;;;;;8.39;nan;101028.50;6212099;28;20380;-81
2023/01/14 05:39:50;;;;;;;4.90;2.23;;;;;;;8.32;nan;101029.97;6186281;28;20583;-75
2023/01/14 05:46:52;;;;;;;2.43;2.27;;;;;;;8.34;nan;101026.19;6215260;28;20240;-75
2023/01/14 05:50:14;;;;;;;3.50;3.03;;;;;;;8.33;nan;101024.47;6202480;28;20297;-74
2023/01/14 05:53:35;;;;;;;5.80;3.30;;;;;;;8.26;nan;101017.00;6203094;28;20236;-74
2023/01/14 05:56:58;;;;;;;4.73;3.07;;;;;;;8.54;nan;101019.25;6219396;28;20220;-75
2023/01/14 06:07:36;;;;;;;4.17;3.33;;;;;;;8.83;nan;101012.44;6207951;28;20267;-74
2023/01/14 06:10:57;;;;;;;3.73;1.87;;;;;;;8.48;nan;101007.16;6220748;28;20343;-76
2023/01/14 06:14:19;;;;;;;8.97;3.03;;;;;;;8.71;nan;100994.59;6193918;28;20237;-75
2023/01/14 06:17:45;;;;;;;5.40;2.63;;;;;;;8.55;nan;100999.47;6205724;28;20237;-76
2023/01/14 06:21:06;;;;;;;12.93;4.60;;;;;;;8.70;nan;101001.81;6219089;28;20240;-75
2023/01/14 06:24:27;;;;;;;6.07;2.43;;;;;;;8.52;nan;101005.09;6207726;28;20303;-75
2023/01/14 06:27:48;;;;;;;2.97;2.27;;;;;;;8.53;nan;101004.94;6210097;28;20229;-75
2023/01/14 06:31:12;;;;;;;7.90;3.60;;;;;;;8.64;nan;101009.47;6216650;28;20252;-75
2023/01/14 06:34:33;;;;;;;6.93;2.20;;;;;;;8.58;nan;100997.41;6212162;28;20338;-76
2023/01/14 06:37:54;;;;;;;3.03;2.30;;;;;;;8.43;nan;101000.41;6209923;28;20237;-75
2023/01/14 06:41:15;;;;;;;3.03;2.73;;;;;;;8.43;nan;100990.53;6219052;28;20244;-76
2023/01/14 06:44:36;;;;;;;3.20;2.17;;;;;;;8.48;nan;100991.03;6206191;28;20241;-74
2023/01/14 06:47:58;;;;;;;4.23;2.77;;;;;;;8.48;nan;100979.44;6206705;28;20319;-76
2023/01/14 06:51:20;;;;;;;5.47;3.10;;;;;;;8.62;nan;100979.19;6223035;28;20229;-74
2023/01/14 06:54:41;;;;;;;3.77;2.70;;;;;;;8.62;nan;100993.50;6208260;28;20240;-75
2023/01/14 06:58:02;;;;;;;5.27;3.37;;;;;;;8.43;nan;101005.78;6204810;28;20258;-75
2023/01/14 07:01:23;;;;;;;3.03;2.03;;;;;;;8.57;nan;100990.28;6213308;28;20244;-75
2023/01/14 07:04:45;;;;;;;4.30;2.50;;;;;;;8.54;nan;100982.50;6201509;28;20268;-76
2023/01/14 07:08:06;;;;;;;2.77;1.77;;;;;;;8.53;nan;100990.69;6205991;28;20258;-75
2023/01/14 07:11:27;;;;;;;3.50;1.70;;;;;;;8.39;nan;100983.69;6214339;28;20236;-74
2023/01/14 07:14:48;;;;;;;8.17;1.87;;;;;;;8.59;nan;100982.13;6181898;28;21004;-76
2023/01/14 07:18:09;;;;;;;4.20;2.30;;;;;;;8.57;nan;100976.03;6198623;28;20229;-75
2023/01/14 07:21:31;;;;;;;9.83;3.27;;;;;;;8.47;nan;100975.88;6216272;28;20237;-75
2023/01/14 07:24:52;;;;;;;3.90;2.33;;;;;;;8.29;nan;100982.69;6200366;28;20805;-76
2023/01/14 07:28:13;;;;;;;2.53;2.33;;;;;;;8.43;nan;100960.97;6191420;28;20326;-74
2023/01/14 07:31:33;;;;;;;8.33;2.10;;;;;;;8.32;nan;100971.72;6203209;28;20240;-76
2023/01/14 07:34:54;;;;;;;3.83;2.40;;;;;;;8.42;nan;100967.34;6176750;28;20799;-76
2023/01/14 07:38:17;;;;;;;4.70;2.70;;;;;;;8.15;nan;100958.72;6174054;28;20320;-74
2023/01/14 07:41:37;;;;;;;5.40;2.80;;;;;;;8.54;nan;100958.31;6208917;28;21593;-75
2023/01/14 07:44:58;;;;;;;4.87;2.17;;;;;;;8.27;nan;100943.50;6188910;28;20264;-74
2023/01/14 07:48:19;;;;;;;4.80;3.80;;;;;;;8.05;nan;100939.75;6188814;28;20229;-75
2023/01/14 07:51:40;;;;;;;2.80;2.07;;;;;;;8.27;nan;100941.69;6204531;28;20240;-76
2023/01/14 07:55:02;;;;;;;4.70;2.00;;;;;;;8.11;nan;100943.81;6195946;28;20260;-75
2023/01/14 07:58:23;;;;;;;4.33;2.17;;;;;;;7.94;nan;100945.13;6186506;28;20244;-75
2023/01/14 08:01:44;;;;;;;9.63;5.53;;;;;;;8.11;nan;100956.38;6172682;28;20233;-74
2023/01/14 08:05:05;;;;;;;4.57;2.43;;;;;;;8.00;nan;100958.06;6183351;28;20232;-72
2023/01/14 08:08:27;;;;;;;5.17;2.87;;;;;;;8.19;nan;100965.56;6187736;28;20245;-73
2023/01/14 08:11:49;;;;;;;4.23;2.43;;;;;;;8.29;nan;100950.47;6211866;28;20240;-75
2023/01/14 08:15:12;;;;;;;8.00;2.50;;;;;;;8.42;nan;100942.31;6188691;28;20678;-75
2023/01/14 08:18:35;;;;;;;6.97;3.83;;;;;;;8.43;nan;100931.44;6203810;28;20232;-75
2023/01/14 08:21:55;;;;;;;8.63;3.10;;;;;;;8.65;nan;100926.09;6217557;28;20232;-74
2023/01/14 08:25:16;;;;;;;2.93;2.30;;;;;;;8.43;nan;100927.88;6210798;28;20236;-77
2023/01/14 08:28:39;;;;;;;10.93;3.13;;;;;;;8.78;nan;100923.28;6190194;28;20237;-77
2023/01/14 08:32:00;;;;;;;4.17;2.23;;;;;;;8.72;nan;100924.59;6209692;28;20232;-77
2023/01/14 08:35:21;;;;;;;5.77;2.60;;;;;;;8.80;nan;100910.56;6201366;28;20315;-78
2023/01/14 08:38:45;;;;;;;10.23;2.60;;;;;;;8.36;nan;100924.84;6194769;28;20762;-77
2023/01/14 08:42:06;;;;;;;4.10;3.13;;;;;;;8.30;nan;100913.75;6222237;28;20275;-77
2023/01/14 08:45:28;;;;;;;10.50;5.03;;;;;;;8.34;nan;100905.31;6223863;28;20233;-78
2023/01/14 08:48:49;;;;;;;6.67;4.00;;;;;;;8.40;nan;100901.28;6180749;28;20237;-77
2023/01/14 08:52:10;;;;;;;16.37;7.13;;;;;;;8.55;nan;100886.63;6215795;28;20244;-77
2023/01/14 08:55:31;;;;;;;7.13;3.43;;;;;;;8.32;nan;100884.94;6216087;28;20232;-78
2023/01/14 08:58:52;;;;;;;6.07;3.13;;;;;;;8.37;nan;100874.66;6192036;28;20825;-77
2023/01/14 09:02:15;;;;;;;5.87;2.70;;;;;;;8.69;nan;100872.94;6203116;28;21833;-77
2023/01/14 09:05:36;;;;;;;7.70;4.03;;;;;;;8.49;nan;100861.09;6205423;28;20626;-76
2023/01/14 09:19:57;;;;;;;7.90;2.87;;;;;;;8.57;nan;100852.44;6212034;28;20240;-77
2023/01/14 09:23:19;;;;;;;11.43;4.00;;;;;;;7.93;nan;100864.69;6212999;28;20232;-77
2023/01/14 09:26:40;;;;;;;12.00;4.23;;;;;;;8.29;nan;100844.88;6219274;28;20228;-76
2023/01/14 09:30:01;;;;;;;12.83;4.47;;;;;;;8.40;nan;100844.88;6214476;28;20228;-77
2023/01/14 09:33:22;;;;;;;5.00;2.80;;;;;;;8.27;nan;100841.47;6195462;28;20237;-79
2023/01/14 09:36:45;;;;;;;4.43;2.70;;;;;;;8.09;nan;100833.84;6213716;28;20240;-77
2023/01/14 09:40:07;;;;;;;25.03;3.20;;;;;;;8.20;nan;100835.69;6191307;28;20229;-77
2023/01/14 09:43:31;;;;;;;9.03;3.93;;;;;;;8.64;nan;100827.63;6206853;28;20245;-77
2023/01/14 09:46:52;;;;;;;5.97;3.13;;;;;;;8.36;nan;100820.09;6212994;28;20613;-76
2023/01/14 09:50:16;;;;;;;14.77;3.50;;;;;;;8.25;nan;100827.25;6217325;28;20232;-77
2023/01/14 09:53:55;;;;;;;6.53;3.30;;;;;;;8.31;nan;100824.13;6189632;28;20232;-77
2023/01/14 09:57:21;;;;;;;5.03;3.07;;;;;;;8.24;nan;100814.84;6212743;28;20323;-77
2023/01/14 10:00:51;;;;;;;13.07;6.13;;;;;;;8.14;nan;100808.47;6216137;28;20228;-76
2023/01/14 10:04:36;;;;;;;9.83;5.00;;;;;;;8.38;nan;100799.34;6196014;28;20224;-75
2023/01/14 10:07:58;;;;;;;8.43;4.03;;;;;;;8.57;nan;100783.41;6207875;28;20440;-75
2023/01/14 10:11:22;;;;;;;6.70;4.07;;;;;;;8.46;nan;100791.53;6216517;28;20233;-74
2023/01/14 10:14:51;;;;;;;5.07;4.43;;;;;;;8.42;nan;100771.25;6200855;28;20236;-75
2023/01/14 10:18:19;;;;;;;8.63;4.27;;;;;;;8.26;nan;100765.41;6212903;28;21911;-75
2023/01/14 10:21:44;;;;;;;14.40;3.37;;;;;;;8.51;nan;100750.84;6222484;28;20229;-75
2023/01/14 10:25:15;;;;;;;7.53;6.03;;;;;;;8.83;nan;100746.34;6197135;28;20236;-77
2023/01/14 10:28:38;;;;;;;5.40;3.37;;;;;;;8.77;nan;100736.09;6205892;28;20237;-77
2023/01/14 10:32:01;;;;;;;9.83;4.13;;;;;;;8.96;nan;100713.91;6220095;28;20315;-74
2023/01/14 10:35:30;;;;;;;11.70;3.77;;;;;;;8.78;nan;100695.66;6226156;28;20673;-76
2023/01/14 10:38:51;;;;;;;8.53;4.57;;;;;;;8.54;nan;100691.47;6212116;28;20228;-78
2023/01/14 10:42:13;;;;;;;7.47;4.13;;;;;;;8.93;nan;100674.69;6213823;28;20240;-76
2023/01/14 10:45:37;;;;;;;10.03;6.00;;;;;;;8.85;nan;100667.28;6217153;28;20232;-75
2023/01/14 10:49:03;;;;;;;20.00;4.80;;;;;;;8.86;nan;100662.75;6203740;28;22324;-76
2023/01/14 10:52:26;;;;;;;7.67;3.87;;;;;;;8.76;nan;100654.59;6204645;28;20228;-77
2023/01/14 10:55:55;;;;;;;10.37;4.07;;;;;;;9.00;nan;100623.94;6218002;28;20903;-78
2023/01/14 10:59:43;;;;;;;11.57;3.63;;;;;;;8.80;nan;100602.28;6191071;28;20228;-76
2023/01/14 11:03:08;;;;;;;6.57;3.47;;;;;;;9.02;nan;100589.69;6199544;28;20244;-77
2023/01/14 11:06:31;;;;;;;7.57;3.03;;;;;;;9.02;nan;100603.13;6215193;28;20224;-77
2023/01/14 11:09:53;;;;;;;4.50;4.10;;;;;;;8.71;nan;100586.13;6192614;28;20259;-77
2023/01/14 11:13:25;;;;;;;7.43;3.40;;;;;;;8.83;nan;100568.94;6205468;28;20233;-76
2023/01/14 11:16:46;;;;;;;3.63;2.73;;;;;;;8.96;nan;100555.28;6219166;28;20610;-77
2023/01/14 11:20:23;;;;;;;3.83;2.87;;;;;;;8.87;nan;100543.50;6189459;28;20566;-77
2023/01/14 11:23:45;;;;;;;5.93;2.70;;;;;;;8.71;nan;100529.69;6197878;28;20228;-77
2023/01/14 11:27:14;;;;;;;6.30;2.90;;;;;;;9.03;nan;100530.44;6209038;28;20244;-76
2023/01/14 11:30:35;;;;;;;10.67;3.77;;;;;;;8.77;nan;100510.34;6216891;28;20232;-77
2023/01/14 11:33:58;;;;;;;6.83;3.30;;;;;;;8.80;nan;100502.84;6208505;28;20228;-76
2023/01/14 11:37:23;;;;;;;4.20;2.77;;;;;;;8.91;nan;100507.28;6210937;28;20232;-77
2023/01/14 11:44:28;;;;;;;6.33;2.63;;;;;;;8.78;nan;100479.81;6199816;28;20244;-78
2023/01/14 11:47:51;;;;;;;8.83;2.60;;;;;;;8.95;nan;100472.94;6204676;28;20236;-78
2023/01/14 11:51:19;;;;;;;8.33;5.20;;;;;;;8.79;nan;100462.69;6208913;28;20228;-75
2023/01/14 11:54:47;;;;;;;6.53;2.83;;;;;;;8.68;nan;100447.50;6180800;28;20318;-74
2023/01/14 11:58:16;;;;;;;7.13;2.93;;;;;;;8.98;nan;100418.91;6198209;28;20225;-77
2023/01/14 12:01:42;;;;;;;4.97;2.37;;;;;;;8.70;nan;100405.22;6203467;28;20232;-77
2023/01/14 12:05:11;;;;;;;5.70;3.27;;;;;;;9.10;nan;100402.50;6198400;28;20247;-71
2023/01/14 12:08:36;;;;;;;4.60;2.60;;;;;;;9.24;nan;100401.28;6179057;28;20522;-71
2023/01/14 12:12:05;;;;;;;5.40;2.73;;;;;;;9.05;nan;100387.78;6215864;28;20233;-70
2023/01/14 12:19:28;;;;;;;7.00;2.43;;;;;;;8.40;nan;100367.66;6202557;28;20236;-71
2023/01/14 12:22:53;;;;;;;4.90;1.70;;;;;;;8.50;nan;100351.56;6200116;28;20258;-71
2023/01/14 12:26:19;;;;;;;9.10;3.43;;;;;;;8.75;nan;100351.94;6214914;28;20232;-71
2023/01/14 12:29:45;;;;;;;8.07;2.57;;;;;;;8.55;nan;100328.66;6193061;28;20650;-70
2023/01/14 12:33:17;;;;;;;5.20;1.57;;;;;;;8.53;nan;100311.84;6200720;28;20241;-70
2023/01/14 12:36:44;;;;;;;7.13;2.53;;;;;;;8.79;nan;100296.06;6214149;28;20233;-70
2023/01/14 12:47:41;;;;;;;9.40;2.83;;;;;;;8.14;nan;100255.41;6184008;28;20256;-70
2023/01/14 12:51:06;;;;;;;4.10;2.20;;;;;;;8.09;nan;100245.94;6194421;28;20236;-70
2023/01/14 12:54:30;;;;;;;2.40;2.27;;;;;;;8.33;nan;100228.66;6192669;28;20228;-69
2023/01/14 12:57:54;;;;;;;2.10;2.00;;;;;;;8.15;nan;100212.34;6195577;28;20224;-71
2023/01/14 13:01:15;;;;;;;1.37;1.27;;;;;;;8.31;nan;100195.72;6169439;28;20232;-70
2023/01/14 13:04:46;;;;;;;4.63;1.87;;;;;;;8.21;nan;100184.97;6097968;28;20240;-70
2023/01/14 13:08:16;;;;;;;6.63;2.40;;;;;;;8.25;nan;100164.94;6190887;28;20240;-70
2023/01/14 13:11:44;;;;;;;4.73;1.53;;;;;;;8.06;nan;100163.03;6217200;28;20240;-70
2023/01/14 13:15:08;;;;;;;2.00;1.90;;;;;;;8.17;nan;100139.72;6210726;28;20256;-71
2023/01/14 13:18:44;;;;;;;1.43;1.33;;;;;;;8.03;nan;100131.06;6202286;28;20233;-71
2023/01/14 13:22:09;;;;;;;1.30;1.20;;;;;;;8.14;nan;100130.09;6209562;28;20231;-71
2023/01/14 13:25:36;;;;;;;3.20;1.50;;;;;;;8.32;nan;100107.00;6214163;28;20229;-70
2023/01/14 13:29:19;;;;;;;1.83;1.70;;;;;;;8.33;nan;100113.19;6186126;28;20237;-75
2023/01/14 13:32:52;;;;;;;3.43;3.13;;;;;;;8.27;nan;100093.16;6193063;28;20245;-74
2023/01/14 13:36:18;;;;;;;3.43;2.17;;;;;;;8.31;nan;100074.91;6203499;28;20256;-71
2023/01/14 13:39:48;;;;;;;5.47;2.73;;;;;;;8.39;nan;100073.22;6190435;28;20245;-72
2023/01/14 13:43:21;;;;;;;2.17;2.07;;;;;;;8.41;nan;100060.47;6205631;28;20236;-73
2023/01/14 13:46:47;;;;;;;2.23;1.60;;;;;;;8.51;nan;100047.88;6215028;28;20266;-72
2023/01/14 13:50:21;;;;;;;1.93;1.83;;;;;;;8.41;nan;100038.16;6200815;28;20233;-75
2023/01/14 13:53:49;;;;;;;2.30;1.10;;;;;;;8.37;nan;100028.69;6210692;28;20626;-75
2023/01/14 13:57:21;;;;;;;5.97;1.47;;;;;;;8.27;nan;100009.06;6213625;28;20228;-75
2023/01/14 14:00:44;;;;;;;2.20;2.00;;;;;;;8.14;nan;99995.88;6210786;28;20236;-74
2023/01/14 14:04:05;;;;;;;3.60;1.73;;;;;;;8.31;nan;99980.94;6197040;28;20238;-75
2023/01/14 14:07:59;;;;;;;3.33;1.30;;;;;;;8.53;nan;99972.56;6209791;28;20231;-73
2023/01/14 14:11:22;;;;;;;2.30;1.33;;;;;;;8.61;nan;99968.16;6195913;28;20325;-75
2023/01/14 14:14:49;;;;;;;2.40;1.50;;;;;;;8.14;nan;99942.22;6194748;28;20478;-77
2023/01/14 14:18:22;;;;;;;3.13;1.47;;;;;;;8.47;nan;99931.00;6195538;28;20232;-71
2023/01/14 14:21:48;;;;;;;1.43;1.33;;;;;;;8.49;nan;99917.44;6221392;28;20630;-70
2023/01/14 14:25:18;;;;;;;2.43;2.27;;;;;;;8.49;nan;99901.31;6195587;28;20237;-72
2023/01/14 14:28:41;;;;;;;2.33;2.10;;;;;;;8.39;nan;99884.38;6201579;28;20544;-72
2023/01/14 14:32:09;;;;;;;3.23;2.33;;;;;;;8.31;nan;99874.38;6218952;28;20232;-72
2023/01/14 14:35:31;;;;;;;2.00;1.20;;;;;;;8.22;nan;99863.66;6219361;28;20386;-74
2023/01/14 14:38:53;;;;;;;1.70;1.57;;;;;;;8.59;nan;99854.63;6196203;28;20675;-77
2023/01/14 14:42:16;;;;;;;3.30;1.40;;;;;;;8.68;nan;99834.91;6201467;28;20233;-74
2023/01/14 14:45:39;;;;;;;5.07;2.00;;;;;;;8.62;nan;99816.72;6228570;28;20339;-74
2023/01/14 14:49:12;;;;;;;1.57;1.20;;;;;;;8.48;nan;99801.09;6216064;28;20237;-73
2023/01/14 14:52:38;;;;;;;1.33;1.23;;;;;;;8.66;nan;99790.38;6207501;28;20240;-73
2023/01/14 14:56:02;;;;;;;3.70;1.60;;;;;;;8.22;nan;99781.25;6222737;28;20343;-75
2023/01/14 14:59:26;;;;;;;1.07;0.97;;;;;;;8.39;nan;99760.84;6191659;28;20752;-73
2023/01/14 15:02:49;;;;;;;2.30;1.60;;;;;;;8.31;nan;99756.25;6207504;28;21074;-75
2023/01/14 15:06:14;;;;;;;1.80;1.33;;;;;;;8.55;nan;99734.22;6222971;28;20311;-74
2023/01/14 15:09:35;;;;;;;5.47;1.30;;;;;;;8.70;nan;99746.09;6215506;28;20235;-74
2023/01/14 15:12:57;;;;;;;1.10;1.10;;;;;;;8.61;nan;99737.13;6208383;28;20235;-75
2023/01/14 15:16:23;;;;;;;1.43;1.33;;;;;;;8.59;nan;99712.25;6214984;28;21350;-75
2023/01/14 15:19:46;;;;;;;2.23;2.03;;;;;;;8.58;nan;99718.63;6193676;28;20229;-75
2023/01/14 15:23:14;;;;;;;2.13;2.03;;;;;;;8.51;nan;99698.72;6212007;28;20232;-75
2023/01/14 15:26:37;;;;;;;2.53;1.30;;;;;;;8.82;nan;99672.34;6224213;28;20232;-75
2023/01/14 15:30:00;;;;;;;1.27;1.17;;;;;;;8.76;nan;99676.47;6209574;28;20272;-74
2023/01/14 15:33:28;;;;;;;1.50;1.40;;;;;;;8.74;nan;99658.84;6196589;28;20611;-74
2023/01/14 15:37:03;;;;;;;1.93;1.10;;;;;;;8.69;nan;99661.13;6211813;28;20318;-74
2023/01/14 15:40:32;;;;;;;9.10;2.23;;;;;;;8.83;nan;99636.41;6196135;28;20240;-74
2023/01/14 15:43:53;;;;;;;1.27;0.90;;;;;;;8.70;nan;99620.69;6187207;28;20241;-73
2023/01/14 15:47:19;;;;;;;3.50;1.20;;;;;;;8.94;nan;99625.41;6195596;28;22004;-73
2023/01/14 15:50:42;;;;;;;0.80;0.80;;;;;;;8.78;nan;99625.28;6199318;28;20268;-73
2023/01/14 15:54:37;;;;;;;1.40;1.07;;;;;;;8.65;nan;99606.03;6192983;28;20236;-73
2023/01/14 15:58:00;;;;;;;0.67;0.67;;;;;;;8.79;nan;99592.88;6134199;28;20248;-73
2023/01/14 16:01:23;;;;;;;1.10;0.90;;;;;;;8.87;nan;99586.72;6147646;28;20236;-74
2023/01/14 16:04:44;;;;;;;2.93;1.40;;;;;;;9.08;nan;99562.16;6182910;28;20256;-74
2023/01/14 16:08:16;;;;;;;4.93;1.43;;;;;;;9.01;nan;99563.81;6202248;28;20523;-74
2023/01/14 16:11:40;;;;;;;1.57;1.47;;;;;;;9.28;nan;99566.31;6212903;28;20726;-74
2023/01/14 16:15:03;;;;;;;2.30;0.83;;;;;;;9.06;nan;99538.13;6179671;28;20228;-74
2023/01/14 16:18:24;;;;;;;1.07;0.90;;;;;;;9.15;nan;99525.59;6193043;28;20225;-74
2023/01/14 16:21:46;;;;;;;2.77;0.90;;;;;;;9.10;nan;99526.06;6215826;28;20232;-74
2023/01/14 16:25:07;;;;;;;1.10;1.00;;;;;;;9.33;nan;99518.25;6200967;28;20247;-73
2023/01/14 16:28:28;;;;;;;0.90;0.90;;;;;;;9.51;nan;99514.47;6211967;28;21621;-74
2023/01/14 16:31:50;;;;;;;7.87;0.90;;;;;;;9.31;nan;99488.00;6203141;28;20571;-75
2023/01/14 16:35:11;;;;;;;0.90;0.90;;;;;;;9.47;nan;99493.47;6199283;28;20323;-74
2023/01/14 16:38:33;;;;;;;0.77;0.77;;;;;;;9.49;nan;99497.66;6209842;28;20225;-74
2023/01/14 16:41:54;;;;;;;0.43;0.43;;;;;;;9.54;nan;99495.31;6221206;28;20240;-74
2023/01/14 16:45:16;;;;;;;1.43;1.33;;;;;;;9.47;nan;99480.84;6205852;28;20536;-73
2023/01/14 16:48:38;;;;;;;1.03;0.93;;;;;;;9.23;nan;99478.06;6205369;28;20989;-75
2023/01/14 16:52:00;;;;;;;1.20;1.10;;;;;;;9.35;nan;99492.06;6218409;28;20779;-76
2023/01/14 16:55:23;;;;;;;0.70;0.70;;;;;;;9.63;nan;99478.22;6186206;28;20511;-75
2023/01/14 16:58:44;;;;;;;3.00;0.90;;;;;;;9.19;nan;99462.41;6196307;28;20625;-76
2023/01/14 17:02:05;;;;;;;2.63;1.20;;;;;;;9.26;nan;99460.78;6211135;28;20232;-76
2023/01/14 17:05:28;;;;;;;0.80;0.80;;;;;;;9.51;nan;99443.72;6219110;28;20232;-74
2023/01/14 17:08:49;;;;;;;2.00;1.23;;;;;;;9.42;nan;99426.72;6197646;28;20265;-75
2023/01/14 17:15:49;;;;;;;0.53;0.53;;;;;;;9.38;nan;99422.66;6222940;28;20229;-75